createdAt,value
2023-03-06T00:02:14.199Z,98667.09
2023-03-06T00:04:41.617Z,98663.56
2023-03-06T00:07:12.369Z,98660.16
2023-03-06T00:09:39.471Z,98659.66
2023-03-06T00:12:07.288Z,98661.31
2023-03-06T00:14:34.442Z,98655.81
2023-03-06T00:17:01.578Z,98651.22
2023-03-06T00:19:28.944Z,98651.22
2023-03-06T00:21:56.128Z,98646.94
2023-03-06T00:24:23.272Z,98649.75
2023-03-06T00:26:50.942Z,98650.69
2023-03-06T00:29:18.395Z,98644.16
2023-03-06T00:31:47.881Z,98649.41
2023-03-06T00:34:15.472Z,98639.97
2023-03-06T00:36:42.563Z,98637.75
2023-03-06T00:39:09.805Z,98644.47
2023-03-06T00:41:37.211Z,98638.50
2023-03-06T00:44:04.445Z,98637.19
2023-03-06T00:46:31.618Z,98639.47
2023-03-06T00:48:59.112Z,98635.94
2023-03-06T00:51:26.343Z,98636.50
2023-03-06T00:53:53.485Z,98640.62
2023-03-06T00:56:21.023Z,98636.44
2023-03-06T00:58:48.232Z,98630.50
2023-03-06T01:01:15.385Z,98621.34
2023-03-06T01:03:43.645Z,98615.06
2023-03-06T01:06:10.902Z,98609.69
2023-03-06T01:08:38.158Z,98614.44
2023-03-06T01:11:05.825Z,98613.31
2023-03-06T01:13:32.981Z,98621.13
2023-03-06T01:16:09.787Z,98614.19
2023-03-06T01:18:37.993Z,98614.47
2023-03-06T01:21:05.895Z,98614.03
2023-03-06T01:23:33.142Z,98604.22
2023-03-06T01:26:00.707Z,98604.22
2023-03-06T01:28:28.812Z,98602.47
2023-03-06T01:30:56.433Z,98608.47
2023-03-06T01:33:23.879Z,98604.84
2023-03-06T01:35:51.047Z,98602.88
2023-03-06T01:38:18.508Z,98596.38
2023-03-06T01:40:46.254Z,98595.62
2023-03-06T01:43:27.445Z,98594.84
2023-03-06T01:46:33.723Z,98590.09
2023-03-06T01:49:09.486Z,98594.44
2023-03-06T01:51:51.739Z,98589.63
2023-03-06T01:54:24.100Z,98588.12
2023-03-06T01:56:56.569Z,98591.53
2023-03-06T01:59:26.938Z,98591.16
2023-03-06T02:01:57.123Z,98589.50
2023-03-06T02:04:24.920Z,98594.91
2023-03-06T02:06:52.056Z,98595.78
2023-03-06T02:09:19.205Z,98592.81
2023-03-06T02:11:46.751Z,98594.44
2023-03-06T02:14:17.129Z,98585.56
2023-03-06T02:16:44.812Z,98589.94
2023-03-06T02:19:29.654Z,98583.87
2023-03-06T02:21:57.146Z,98589.13
2023-03-06T02:24:33.103Z,98587.62
2023-03-06T02:27:03.406Z,98581.47
2023-03-06T02:29:31.228Z,98583.13
2023-03-06T02:31:59.241Z,98576.06
2023-03-06T02:34:26.583Z,98581.59
2023-03-06T02:37:08.909Z,98584.84
2023-03-06T02:39:44.197Z,98576.16
2023-03-06T02:42:21.732Z,98575.25
2023-03-06T02:44:51.199Z,98577.94
2023-03-06T02:47:18.276Z,98586.31
2023-03-06T02:49:45.321Z,98581.00
2023-03-06T02:52:12.845Z,98584.72
2023-03-06T02:54:40.208Z,98584.94
2023-03-06T02:57:07.459Z,98576.81
2023-03-06T02:59:35.087Z,98583.91
2023-03-06T03:02:02.492Z,98583.25
2023-03-06T03:04:29.547Z,98576.09
2023-03-06T03:06:56.996Z,98571.50
2023-03-06T03:09:25.184Z,98576.69
2023-03-06T03:11:52.291Z,98568.69
2023-03-06T03:14:19.728Z,98578.63
2023-03-06T03:16:46.965Z,98573.59
2023-03-06T03:19:14.355Z,98565.69
2023-03-06T03:21:42.882Z,98569.53
2023-03-06T03:24:10.008Z,98573.00
2023-03-06T03:26:37.129Z,98577.53
2023-03-06T03:29:05.215Z,98568.87
2023-03-06T03:31:32.915Z,98563.25
2023-03-06T03:34:00.413Z,98564.19
2023-03-06T03:36:30.665Z,98559.22
2023-03-06T03:38:58.139Z,98555.44
2023-03-06T03:41:25.787Z,98553.25
2023-03-06T03:43:53.146Z,98557.75
2023-03-06T03:46:21.559Z,98554.34
2023-03-06T03:48:49.167Z,98547.19
2023-03-06T03:51:17.145Z,98556.16
2023-03-06T03:53:45.124Z,98548.91
2023-03-06T03:56:13.267Z,98544.59
2023-03-06T03:58:42.337Z,98554.34
2023-03-06T04:01:09.498Z,98549.00
2023-03-06T04:03:37.220Z,98550.03
2023-03-06T04:06:04.978Z,98549.12
2023-03-06T04:08:32.120Z,98546.28
2023-03-06T04:11:00.114Z,98546.28
2023-03-06T04:13:28.106Z,98546.41
2023-03-06T04:15:56.423Z,98558.59
2023-03-06T04:18:24.038Z,98559.44
2023-03-06T04:20:52.335Z,98564.72
2023-03-06T04:23:20.045Z,98554.22
2023-03-06T04:25:47.782Z,98556.56
2023-03-06T04:28:15.528Z,98549.59
2023-03-06T04:30:43.090Z,98549.59
2023-03-06T04:33:10.846Z,98547.94
2023-03-06T04:35:38.419Z,98543.53
2023-03-06T04:38:06.348Z,98547.69
2023-03-06T04:40:35.634Z,98546.19
2023-03-06T04:43:04.329Z,98544.41
2023-03-06T04:45:32.557Z,98542.72
2023-03-06T04:48:00.073Z,98548.00
2023-03-06T04:50:32.578Z,98543.34
2023-03-06T04:53:01.374Z,98541.56
2023-03-06T04:55:29.490Z,98540.75
2023-03-06T04:57:57.496Z,98538.09
2023-03-06T05:00:31.493Z,98534.47
2023-03-06T05:03:00.263Z,98539.72
2023-03-06T05:05:28.171Z,98538.03
2023-03-06T05:07:56.025Z,98535.19
2023-03-06T05:10:23.903Z,98540.34
2023-03-06T05:12:51.340Z,98544.56
2023-03-06T05:15:18.836Z,98545.34
2023-03-06T05:17:47.521Z,98541.38
2023-03-06T05:20:16.392Z,98543.75
2023-03-06T05:22:44.075Z,98545.41
2023-03-06T05:25:11.410Z,98539.50
2023-03-06T05:27:39.743Z,98544.59
2023-03-06T05:30:07.769Z,98538.09
2023-03-06T05:32:35.836Z,98536.22
2023-03-06T05:35:04.348Z,98535.25
2023-03-06T05:37:31.953Z,98535.03
2023-03-06T05:39:59.787Z,98539.63
2023-03-06T05:42:28.761Z,98539.38
2023-03-06T05:44:55.885Z,98537.44
2023-03-06T05:47:22.842Z,98540.19
2023-03-06T05:49:50.406Z,98537.69
2023-03-06T05:52:17.808Z,98541.09
2023-03-06T05:54:44.898Z,98547.03
2023-03-06T05:57:12.312Z,98545.31
2023-03-06T05:59:39.330Z,98545.31
